Time;durP1;ratioP1;P1;durP2;ratioP2;P2;SDS_P1;SDS_P2;PMS_P1;PMS_P2;Temp;Humidity;BMP_temperature;BMP_pressure;BME280_temperature;BME280_humidity;BME280_pressure;Samples;Min_cycle;Max_cycle;Signal;HPM_P1;HPM_P2
2021/12/24 00:01:17;;;;;;;50.23;28.20;;;;;;;0.13;74.08;100090.94;5092380;28;20442;-72
2021/12/24 00:03:46;;;;;;;52.30;29.17;;;;;;;0.05;74.49;100085.44;5092917;28;20494;-72
2021/12/24 00:06:14;;;;;;;54.27;29.97;;;;;;;0.03;74.68;100088.31;5092849;28;20496;-72
2021/12/24 00:08:42;;;;;;;49.10;29.00;;;;;;;0.00;75.35;100086.78;5093154;28;20494;-73
2021/12/24 00:11:09;;;;;;;67.70;31.40;;;;;;;-0.03;74.97;100093.03;5092725;28;20485;-73
2021/12/24 00:13:40;;;;;;;57.70;29.60;;;;;;;-0.19;75.46;100089.09;5093243;28;20481;-72
2021/12/24 00:16:15;;;;;;;56.47;29.70;;;;;;;-0.31;75.87;100090.00;5092169;28;20890;-73
2021/12/24 00:18:47;;;;;;;53.77;29.30;;;;;;;-0.43;76.85;100090.88;5093306;28;20507;-73
2021/12/24 00:35:29;;;;;;;68.33;35.37;;;;;;;-0.47;77.27;100094.66;5109968;28;20420;-72
2021/12/24 00:38:01;;;;;;;75.17;36.37;;;;;;;-0.45;76.85;100092.78;5110782;28;20458;-72
2021/12/24 00:40:31;;;;;;;67.33;37.83;;;;;;;-0.57;77.51;100088.47;5110226;28;20450;-72
2021/12/24 00:42:59;;;;;;;70.93;37.20;;;;;;;-0.71;78.36;100096.44;5109486;28;20489;-72
2021/12/24 00:45:28;;;;;;;73.73;39.40;;;;;;;-0.81;78.07;100092.84;5109446;28;20822;-72
2021/12/24 00:47:56;;;;;;;77.10;39.03;;;;;;;-0.88;78.23;100083.78;5109728;28;20440;-72
2021/12/24 00:50:26;;;;;;;72.13;39.47;;;;;;;-0.93;78.89;100071.06;5109279;28;20444;-72
2021/12/24 00:52:58;;;;;;;74.63;37.53;;;;;;;-0.98;78.97;100064.53;5109278;28;20517;-71
2021/12/24 00:55:25;;;;;;;74.17;38.83;;;;;;;-1.00;79.45;100063.81;5110115;28;20793;-71
2021/12/24 00:57:55;;;;;;;72.33;38.23;;;;;;;-1.04;80.29;100055.38;5109527;28;20440;-71
2021/12/24 01:00:26;;;;;;;74.00;38.67;;;;;;;-1.04;79.81;100059.75;5109776;28;20432;-71
2021/12/24 01:02:55;;;;;;;66.87;38.17;;;;;;;-1.06;81.03;100059.03;5109134;28;20437;-71
2021/12/24 01:05:24;;;;;;;68.57;38.67;;;;;;;-1.07;80.20;100049.53;5109390;28;20491;-72
2021/12/24 01:07:51;;;;;;;69.40;38.70;;;;;;;-1.07;80.36;100044.31;5109085;28;20505;-73
2021/12/24 01:10:21;;;;;;;66.77;39.17;;;;;;;-1.12;79.70;100036.84;5108942;28;20864;-72
2021/12/24 01:12:48;;;;;;;77.43;37.87;;;;;;;-1.12;79.68;100022.97;5109133;28;20922;-72
2021/12/24 01:15:17;;;;;;;72.27;36.30;;;;;;;-1.14;79.42;100019.66;5108880;28;20436;-73
2021/12/24 01:17:49;;;;;;;56.40;32.10;;;;;;;-1.24;79.38;100013.41;5108851;28;20432;-73
2021/12/24 01:20:25;;;;;;;52.23;29.70;;;;;;;-1.29;78.83;100018.13;5109876;28;20436;-73
2021/12/24 01:25:42;;;;;;;52.63;30.70;;;;;;;-1.14;79.04;100019.66;5109063;28;20420;-73
2021/12/24 01:39:39;;;;;;;57.13;27.27;;;;;;;-0.80;75.28;99992.81;5070370;28;20498;-72
2021/12/24 01:44:51;;;;;;;54.03;27.90;;;;;;;-0.79;74.87;99984.03;5094490;28;20432;-71
2021/12/24 01:47:19;;;;;;;44.10;26.93;;;;;;;-0.78;75.14;99970.03;5094945;28;20506;-71
2021/12/24 01:49:46;;;;;;;48.97;27.03;;;;;;;-0.74;75.32;99961.88;5095246;28;20429;-71
2021/12/24 01:52:15;;;;;;;42.53;26.13;;;;;;;-0.70;75.18;99959.88;5094657;28;20574;-71
2021/12/24 01:54:42;;;;;;;49.20;27.93;;;;;;;-0.65;75.03;99949.97;5095686;28;20433;-71
2021/12/24 01:57:09;;;;;;;54.17;28.03;;;;;;;-0.73;74.42;99931.44;5094788;28;20443;-70
2021/12/24 01:59:36;;;;;;;45.40;27.00;;;;;;;-0.59;74.28;99939.03;5094739;28;20471;-70
2021/12/24 02:02:03;;;;;;;44.60;27.23;;;;;;;-0.69;74.65;99943.31;5094389;28;20944;-70
2021/12/24 02:04:31;;;;;;;47.33;26.93;;;;;;;-0.82;74.75;99943.38;5094379;28;20449;-70
2021/12/24 02:06:58;;;;;;;44.63;27.03;;;;;;;-0.80;75.49;99930.22;5094289;28;20490;-70
2021/12/24 02:09:24;;;;;;;50.43;27.60;;;;;;;-0.79;75.69;99937.94;5094587;28;20490;-70
2021/12/24 02:11:53;;;;;;;50.67;29.03;;;;;;;-0.73;75.70;99923.63;5095143;28;20442;-70
2021/12/24 02:14:23;;;;;;;55.77;30.47;;;;;;;-0.70;75.77;99920.75;5094104;28;20948;-70
2021/12/24 02:17:17;;;;;;;57.43;29.17;;;;;;;-0.73;75.41;99921.81;5094138;28;20524;-70
2021/12/24 02:28:21;;;;;;;62.13;31.00;;;;;;;-0.88;75.62;99922.13;5081092;28;20440;-72
2021/12/24 02:30:48;;;;;;;62.53;30.13;;;;;;;-0.87;75.78;99909.00;5095060;28;20437;-72
2021/12/24 02:33:15;;;;;;;57.10;30.77;;;;;;;-0.84;75.83;99910.53;5093783;28;20999;-71
2021/12/24 02:35:42;;;;;;;54.63;29.20;;;;;;;-0.81;75.63;99913.75;5093781;28;20928;-71
2021/12/24 02:38:10;;;;;;;53.10;29.37;;;;;;;-0.80;75.10;99911.97;5094337;28;20506;-72
2021/12/24 02:40:37;;;;;;;60.00;30.27;;;;;;;-0.78;75.07;99897.03;5094218;28;20437;-72
2021/12/24 02:43:06;;;;;;;52.10;29.77;;;;;;;-0.76;74.89;99884.72;5093670;28;20437;-72
2021/12/24 02:45:35;;;;;;;56.90;30.27;;;;;;;-0.79;75.23;99884.94;5092963;28;20487;-72
2021/12/24 02:48:35;;;;;;;60.27;31.63;;;;;;;-0.73;75.18;99900.16;5093508;28;20437;-72
2021/12/24 02:53:59;;;;;;;58.20;32.47;;;;;;;-0.86;76.27;99896.81;5093832;28;20451;-72
2021/12/24 02:56:30;;;;;;;58.20;30.63;;;;;;;-0.79;76.25;99905.81;5093493;28;20436;-72
2021/12/24 02:58:59;;;;;;;63.77;33.00;;;;;;;-0.77;75.10;99894.31;5093372;28;20437;-72
2021/12/24 03:01:28;;;;;;;56.60;31.30;;;;;;;-0.87;75.71;99905.53;5094102;28;20442;-71
2021/12/24 03:03:54;;;;;;;59.53;31.40;;;;;;;-0.84;75.60;99889.69;5093231;28;20445;-71
2021/12/24 03:06:24;;;;;;;56.90;30.97;;;;;;;-0.76;75.26;99908.19;5093161;28;20506;-71
2021/12/24 03:08:52;;;;;;;59.27;31.70;;;;;;;-0.77;75.30;99889.09;5093123;28;20445;-70
2021/12/24 03:11:19;;;;;;;51.07;31.43;;;;;;;-0.70;74.83;99897.28;5093939;28;20450;-70
2021/12/24 03:13:47;;;;;;;56.83;32.03;;;;;;;-0.81;75.14;99897.28;5093212;28;20480;-70
2021/12/24 03:16:14;;;;;;;55.77;32.33;;;;;;;-0.86;76.05;99895.00;5093258;28;20433;-70
2021/12/24 03:18:42;;;;;;;57.83;31.90;;;;;;;-0.87;75.85;99888.13;5093007;28;20945;-70
2021/12/24 03:21:14;;;;;;;64.67;32.00;;;;;;;-0.81;74.64;99892.06;5092865;28;20960;-72
2021/12/24 03:23:44;;;;;;;61.43;32.70;;;;;;;-0.82;74.63;99908.63;5094144;28;20859;-71
2021/12/24 03:26:16;;;;;;;59.07;33.40;;;;;;;-0.88;75.61;99906.50;5093400;28;20428;-70
2021/12/24 03:28:43;;;;;;;60.13;32.87;;;;;;;-0.84;74.68;99903.56;5092841;28;20486;-70
2021/12/24 03:31:10;;;;;;;57.73;33.83;;;;;;;-0.83;74.50;99894.78;5093293;28;20777;-70
2021/12/24 03:33:38;;;;;;;63.13;35.03;;;;;;;-0.84;74.77;99879.25;5092868;28;20473;-71
2021/12/24 03:36:07;;;;;;;57.90;34.77;;;;;;;-0.83;74.84;99873.09;5092944;28;20433;-71
2021/12/24 03:38:36;;;;;;;67.03;34.73;;;;;;;-0.86;74.71;99857.69;5092686;28;20553;-71
2021/12/24 03:41:04;;;;;;;64.83;33.93;;;;;;;-0.88;75.10;99864.78;5093394;28;20498;-71
2021/12/24 03:43:33;;;;;;;56.97;30.50;;;;;;;-1.01;75.07;99890.91;5092431;28;20870;-71
2021/12/24 03:46:03;;;;;;;56.00;31.87;;;;;;;-1.19;76.19;99871.44;5092775;28;20424;-70
2021/12/24 03:48:44;;;;;;;56.00;31.83;;;;;;;-1.14;76.78;99858.09;5093672;28;20433;-71
2021/12/24 03:51:28;;;;;;;55.43;31.27;;;;;;;-1.26;76.45;99859.00;5092432;28;20936;-71
2021/12/24 03:56:40;;;;;;;59.37;31.50;;;;;;;-1.33;76.83;99856.00;5071850;28;20436;-69
2021/12/24 03:59:09;;;;;;;62.10;33.57;;;;;;;-1.40;77.26;99838.31;5092098;28;20432;-69
2021/12/24 04:01:36;;;;;;;61.37;33.33;;;;;;;-1.36;77.25;99838.00;5092272;28;20462;-72
2021/12/24 04:04:04;;;;;;;62.73;33.33;;;;;;;-1.36;76.82;99839.75;5092204;28;21029;-70
2021/12/24 04:06:31;;;;;;;57.70;31.63;;;;;;;-1.51;76.68;99838.28;5092188;28;20437;-70
2021/12/24 04:08:58;;;;;;;58.47;32.37;;;;;;;-1.64;77.04;99838.34;5092430;28;20437;-71
2021/12/24 04:11:25;;;;;;;57.17;31.83;;;;;;;-1.73;77.92;99832.97;5092785;28;20429;-71
2021/12/24 04:13:52;;;;;;;62.07;32.20;;;;;;;-1.74;78.92;99818.28;5091967;28;20504;-72
2021/12/24 04:16:20;;;;;;;53.53;31.07;;;;;;;-1.68;77.93;99816.06;5092061;28;21020;-72
2021/12/24 04:18:54;;;;;;;59.40;32.37;;;;;;;-1.74;78.19;99815.69;5092046;28;20868;-72
2021/12/24 04:26:48;;;;;;;56.07;31.33;;;;;;;-1.67;78.13;99822.13;5092390;28;20404;-70
2021/12/24 04:29:15;;;;;;;50.17;30.03;;;;;;;-1.62;78.32;99815.63;5092258;28;20437;-70
2021/12/24 04:31:46;;;;;;;56.97;30.83;;;;;;;-1.56;78.11;99803.91;5091817;28;20835;-71
2021/12/24 04:34:14;;;;;;;55.50;30.37;;;;;;;-1.53;78.09;99803.69;5092496;28;20488;-71
2021/12/24 04:37:07;;;;;;;59.33;31.47;;;;;;;-1.57;77.21;99794.44;5092381;28;20441;-70
2021/12/24 04:39:44;;;;;;;52.17;31.13;;;;;;;-1.60;78.07;99782.50;5092049;28;20943;-70
2021/12/24 05:01:11;;;;;;;57.03;32.70;;;;;;;-1.39;76.86;99790.50;5092299;28;20426;-70
2021/12/24 05:01:44;;;;;;;55.73;32.23;;;;;;;-1.37;76.07;99789.44;5091726;28;20404;-71
2021/12/24 05:04:13;;;;;;;55.87;31.37;;;;;;;-1.33;76.34;99790.03;5091640;28;20827;-71
2021/12/24 05:06:49;;;;;;;49.57;29.57;;;;;;;-1.41;77.82;99792.38;5092423;28;20537;-71
2021/12/24 05:09:21;;;;;;;56.90;29.97;;;;;;;-1.51;77.58;99797.44;5092208;28;20433;-70
2021/12/24 05:11:48;;;;;;;54.57;30.70;;;;;;;-1.52;77.65;99792.34;5096272;28;20432;-71
2021/12/24 05:14:15;;;;;;;51.20;30.87;;;;;;;-1.44;77.28;99795.19;5095529;28;20521;-71
2021/12/24 05:16:46;;;;;;;53.40;29.73;;;;;;;-1.40;76.57;99809.66;5096149;28;20437;-71
2021/12/24 05:21:59;;;;;;;52.83;29.03;;;;;;;-1.33;76.51;99816.09;5095409;28;20911;-71
2021/12/24 05:24:30;;;;;;;49.53;28.97;;;;;;;-1.26;76.36;99812.91;5096019;28;20481;-72
2021/12/24 05:26:59;;;;;;;50.83;27.93;;;;;;;-1.24;76.01;99807.59;5096237;28;20460;-72
2021/12/24 05:29:25;;;;;;;49.20;30.17;;;;;;;-1.19;75.95;99802.84;5095918;28;20433;-70
2021/12/24 05:31:53;;;;;;;57.90;30.33;;;;;;;-1.24;76.66;99804.97;5095027;28;20441;-71
2021/12/24 05:34:21;;;;;;;49.00;29.23;;;;;;;-1.26;76.45;99817.31;5095103;28;20472;-70
2021/12/24 05:36:50;;;;;;;58.73;29.57;;;;;;;-1.34;76.97;99809.22;5094872;28;20501;-70
2021/12/24 05:39:18;;;;;;;52.53;30.77;;;;;;;-1.33;76.15;99819.53;5095079;28;20502;-69
2021/12/24 05:41:45;;;;;;;58.17;32.23;;;;;;;-1.52;77.49;99834.00;5094808;28;20437;-71
2021/12/24 05:44:15;;;;;;;66.00;39.40;;;;;;;-1.85;78.16;99823.44;5095852;28;20502;-71
2021/12/24 05:46:42;;;;;;;61.83;35.03;;;;;;;-1.89;77.92;99821.97;5094813;28;20433;-70
2021/12/24 05:49:09;;;;;;;69.47;35.47;;;;;;;-1.78;79.08;99829.88;5095742;28;20513;-70
2021/12/24 05:51:37;;;;;;;70.83;37.33;;;;;;;-1.75;78.83;99814.84;5095173;28;20502;-70
2021/12/24 05:54:05;;;;;;;70.57;34.47;;;;;;;-1.64;78.98;99827.09;5094480;28;20469;-69
2021/12/24 05:56:31;;;;;;;68.50;36.27;;;;;;;-1.77;78.09;99828.91;5094490;28;20928;-69
2021/12/24 05:58:58;;;;;;;70.17;38.10;;;;;;;-1.78;78.80;99829.88;5095598;28;20497;-71
2021/12/24 06:01:25;;;;;;;75.50;39.53;;;;;;;-1.65;79.17;99823.66;5094302;28;20797;-73
2021/12/24 06:03:52;;;;;;;75.70;38.83;;;;;;;-1.65;78.23;99822.81;5094276;28;20514;-71
2021/12/24 06:06:19;;;;;;;77.03;40.77;;;;;;;-1.63;78.21;99818.34;5094676;28;20437;-70
2021/12/24 06:08:47;;;;;;;79.37;38.47;;;;;;;-1.66;77.89;99834.19;5095089;28;20869;-70
2021/12/24 06:11:14;;;;;;;68.97;38.57;;;;;;;-1.63;78.72;99823.56;5094056;28;20437;-71
2021/12/24 06:13:40;;;;;;;71.83;38.47;;;;;;;-1.55;77.47;99816.03;5093987;28;20471;-71
2021/12/24 06:16:09;;;;;;;73.87;37.80;;;;;;;-1.45;77.46;99814.38;5094588;28;20498;-72
2021/12/24 06:18:38;;;;;;;70.47;37.47;;;;;;;-1.31;76.77;99816.81;5094372;28;20444;-72
2021/12/24 06:21:06;;;;;;;67.80;37.87;;;;;;;-1.31;76.15;99817.63;5093802;28;20441;-72
2021/12/24 06:23:34;;;;;;;67.70;37.27;;;;;;;-1.38;76.49;99818.22;5093785;28;20533;-71
2021/12/24 06:26:03;;;;;;;66.07;38.20;;;;;;;-1.28;77.99;99820.00;5093764;28;20804;-69
2021/12/24 06:28:30;;;;;;;70.43;37.67;;;;;;;-1.10;76.61;99816.03;5094854;28;20832;-72
2021/12/24 06:30:57;;;;;;;79.93;39.77;;;;;;;-1.11;75.68;99816.13;5094029;28;20437;-73
2021/12/24 06:33:24;;;;;;;87.10;44.43;;;;;;;-1.17;76.07;99806.19;5090532;28;20457;-70
2021/12/24 06:35:53;;;;;;;85.87;46.47;;;;;;;-1.06;76.76;99806.22;5093565;28;20570;-71
2021/12/24 06:38:20;;;;;;;88.40;46.63;;;;;;;-1.06;75.92;99819.25;5094069;28;20437;-75
2021/12/24 06:40:47;;;;;;;81.00;44.57;;;;;;;-0.82;77.36;99812.16;5092918;28;20956;-70
2021/12/24 06:43:15;;;;;;;86.30;44.60;;;;;;;-0.49;76.76;99810.41;5093509;28;20433;-72
2021/12/24 06:45:42;;;;;;;95.13;49.70;;;;;;;-0.18;75.31;99790.56;5093704;28;20441;-72
2021/12/24 06:48:08;;;;;;;85.93;47.57;;;;;;;0.15;73.85;99792.28;5093665;28;20437;-72
2021/12/24 06:50:35;;;;;;;83.70;45.63;;;;;;;0.29;71.20;99808.50;5092989;28;20994;-68
2021/12/24 06:53:02;;;;;;;77.53;46.03;;;;;;;0.32;72.12;99796.97;5092930;28;20499;-70
2021/12/24 06:55:29;;;;;;;79.47;44.17;;;;;;;0.44;71.00;99799.41;5093263;28;20636;-70
2021/12/24 06:57:56;;;;;;;76.83;44.37;;;;;;;0.56;71.69;99780.13;5093102;28;20433;-70
2021/12/24 07:00:25;;;;;;;72.20;43.40;;;;;;;0.87;71.13;99784.47;5093276;28;20441;-72
2021/12/24 07:02:52;;;;;;;76.50;44.37;;;;;;;1.28;69.71;99787.06;5092791;28;20421;-68
2021/12/24 07:05:19;;;;;;;80.80;45.40;;;;;;;1.61;67.63;99794.63;5093293;28;20445;-72
2021/12/24 07:07:46;;;;;;;82.53;45.77;;;;;;;1.63;67.53;99803.16;5092761;28;20527;-71
2021/12/24 07:10:13;;;;;;;86.53;46.10;;;;;;;1.78;68.10;99788.75;5092748;28;20823;-71
2021/12/24 07:12:40;;;;;;;71.50;38.90;;;;;;;2.46;79.06;99769.56;5092653;28;20944;-72
2021/12/24 07:15:07;;;;;;;74.53;40.10;;;;;;;3.06;65.22;99788.38;5093265;28;20464;-73
2021/12/24 07:17:35;;;;;;;65.50;43.23;;;;;;;3.78;64.28;99799.06;5093106;28;20438;-71
2021/12/24 07:20:02;;;;;;;82.43;44.83;;;;;;;4.15;60.34;99807.69;5092673;28;20433;-74
2021/12/24 07:22:29;;;;;;;89.57;47.60;;;;;;;4.35;61.60;99798.72;5092941;28;20498;-72
2021/12/24 07:24:55;;;;;;;89.87;49.80;;;;;;;4.43;56.85;99802.25;5093756;28;20501;-72
2021/12/24 07:27:22;;;;;;;86.43;47.20;;;;;;;4.12;55.99;99803.56;5092679;28;20191;-73
2021/12/24 07:29:49;;;;;;;73.97;42.97;;;;;;;3.87;57.54;99782.41;5092861;28;20437;-71
2021/12/24 07:32:16;;;;;;;65.40;38.77;;;;;;;3.88;57.64;99797.22;5091839;28;20491;-71
2021/12/24 07:34:44;;;;;;;39.87;23.07;;;;;;;4.32;80.29;99760.41;5092342;28;20473;-72
2021/12/24 07:37:10;;;;;;;86.73;47.67;;;;;;;4.74;57.98;99795.63;5092528;28;20191;-72
2021/12/24 07:39:37;;;;;;;81.90;48.30;;;;;;;4.85;53.88;99798.03;5092795;28;20260;-71
2021/12/24 07:42:04;;;;;;;80.53;44.57;;;;;;;4.70;54.07;99791.66;5092240;28;20625;-70
2021/12/24 07:44:34;;;;;;;71.93;44.17;;;;;;;4.68;54.75;99796.25;5092111;28;20260;-72
2021/12/24 07:47:02;;;;;;;80.53;45.43;;;;;;;4.68;54.09;99806.78;5091339;28;20198;-71
2021/12/24 07:49:38;;;;;;;80.93;45.70;;;;;;;4.68;54.70;99816.47;5092352;28;20224;-68
2021/12/24 07:52:12;;;;;;;97.60;52.77;;;;;;;4.67;54.63;99818.28;5090226;28;20183;-69
2021/12/24 07:54:42;;;;;;;84.67;47.07;;;;;;;4.77;54.27;99800.59;5090990;28;20713;-75
2021/12/24 07:57:10;;;;;;;83.27;47.53;;;;;;;4.96;54.60;99805.69;5088773;28;20202;-66
2021/12/24 07:59:38;;;;;;;78.30;46.27;;;;;;;5.22;52.43;99800.44;5090770;28;20248;-64
2021/12/24 08:02:09;;;;;;;67.17;40.80;;;;;;;5.34;50.33;99807.94;5091508;28;20190;-67
2021/12/24 08:04:37;;;;;;;64.93;39.93;;;;;;;5.58;50.46;99808.09;5089539;28;20626;-68
2021/12/24 08:07:04;;;;;;;57.57;37.57;;;;;;;5.79;49.01;99815.56;5091577;28;20199;-68
2021/12/24 08:09:32;;;;;;;58.43;36.17;;;;;;;5.97;48.24;99802.34;5090472;28;20248;-72
2021/12/24 08:11:59;;;;;;;45.43;30.10;;;;;;;6.30;46.70;99809.38;5091470;28;20194;-68
2021/12/24 08:14:26;;;;;;;47.37;31.33;;;;;;;6.38;46.03;99806.75;5091282;28;20731;-69
2021/12/24 08:16:53;;;;;;;46.47;31.03;;;;;;;6.29;47.01;99784.00;5091507;28;20191;-69
2021/12/24 08:19:19;;;;;;;44.27;29.10;;;;;;;6.48;46.47;99765.19;5091291;28;20340;-69
2021/12/24 08:21:46;;;;;;;42.93;29.03;;;;;;;6.71;44.99;99760.94;5091642;28;20188;-69
2021/12/24 08:24:13;;;;;;;46.33;28.30;;;;;;;6.94;43.96;99761.94;5090918;28;20707;-68
2021/12/24 08:26:41;;;;;;;45.20;31.13;;;;;;;7.11;44.15;99758.28;5091662;28;20256;-68
2021/12/24 08:29:08;;;;;;;47.53;29.93;;;;;;;7.23;43.19;99749.00;5091081;28;20220;-69
2021/12/24 08:31:35;;;;;;;49.33;29.93;;;;;;;7.23;43.32;99746.38;5091183;28;20248;-68
2021/12/24 08:34:03;;;;;;;36.87;26.07;;;;;;;7.10;44.37;99735.50;5091347;28;20200;-68
2021/12/24 08:36:30;;;;;;;41.73;28.07;;;;;;;6.94;43.66;99740.81;5091750;28;20222;-69
2021/12/24 08:38:57;;;;;;;41.33;26.17;;;;;;;6.99;44.17;99728.75;5090994;28;20195;-68
2021/12/24 08:41:24;;;;;;;44.53;25.33;;;;;;;7.23;43.86;99720.75;5091651;28;20193;-69
2021/12/24 08:43:52;;;;;;;41.10;24.60;;;;;;;7.35;42.80;99718.59;5091738;28;20187;-68
2021/12/24 08:46:19;;;;;;;38.80;24.33;;;;;;;7.39;42.43;99725.19;5095886;28;20260;-67
2021/12/24 08:48:46;;;;;;;33.37;23.77;;;;;;;7.36;42.71;99728.16;5095321;28;20205;-68
2021/12/24 08:51:13;;;;;;;36.83;25.53;;;;;;;7.32;44.91;99721.56;5095616;28;20279;-68
2021/12/24 08:53:40;;;;;;;35.43;24.03;;;;;;;7.03;44.80;99730.06;5095068;28;20512;-69
2021/12/24 08:56:07;;;;;;;37.27;24.73;;;;;;;7.27;43.72;99726.56;5095338;28;20276;-69
2021/12/24 08:58:36;;;;;;;37.63;25.07;;;;;;;7.54;43.37;99718.19;5095298;28;20191;-69
2021/12/24 09:01:04;;;;;;;40.10;25.77;;;;;;;7.74;41.79;99708.84;5094972;28;20666;-69
2021/12/24 09:03:32;;;;;;;34.87;23.03;;;;;;;7.91;40.52;99710.41;5094541;28;20195;-69
2021/12/24 09:05:59;;;;;;;28.47;22.57;;;;;;;7.86;40.54;99713.59;5095228;28;20339;-70
2021/12/24 09:08:25;;;;;;;42.93;24.63;;;;;;;7.66;41.57;99706.25;5095325;28;20191;-70
2021/12/24 09:10:52;;;;;;;40.57;26.83;;;;;;;7.73;41.34;99709.84;5095336;28;20187;-69
2021/12/24 09:13:19;;;;;;;41.33;28.57;;;;;;;7.68;41.05;99712.19;5095597;28;20264;-69
2021/12/24 09:15:46;;;;;;;45.10;29.87;;;;;;;7.90;40.73;99698.19;5095134;28;20223;-69
2021/12/24 09:18:14;;;;;;;60.60;30.57;;;;;;;8.30;40.17;99711.19;5095732;28;20213;-69
2021/12/24 09:20:41;;;;;;;46.07;31.00;;;;;;;8.55;39.43;99705.56;5095095;28;20240;-70
2021/12/24 09:23:09;;;;;;;57.57;32.10;;;;;;;8.79;39.16;99700.03;5095169;28;20318;-74
2021/12/24 09:25:36;;;;;;;50.33;30.20;;;;;;;8.79;38.60;99694.72;5094132;28;20238;-74
2021/12/24 09:28:04;;;;;;;56.27;32.87;;;;;;;8.99;38.61;99692.41;5094629;28;20260;-74
2021/12/24 09:30:32;;;;;;;53.40;33.47;;;;;;;9.17;37.56;99680.44;5094433;28;20195;-74
2021/12/24 09:32:59;;;;;;;53.33;33.13;;;;;;;9.23;37.40;99671.75;5093971;28;20670;-74
2021/12/24 09:35:28;;;;;;;51.30;32.07;;;;;;;9.22;37.94;99653.38;5095010;28;20219;-77
2021/12/24 09:37:56;;;;;;;42.80;27.47;;;;;;;8.95;37.68;99644.25;5091258;28;20187;-74
2021/12/24 09:40:23;;;;;;;34.80;22.70;;;;;;;9.17;37.60;99627.44;5091821;28;20280;-70
2021/12/24 09:42:50;;;;;;;34.70;22.93;;;;;;;9.37;36.70;99607.31;5093981;28;20689;-74
2021/12/24 09:45:17;;;;;;;40.40;24.33;;;;;;;9.31;36.28;99607.25;5093033;28;20195;-73
2021/12/24 09:47:46;;;;;;;33.80;22.23;;;;;;;9.48;35.99;99613.97;5090367;28;20666;-73
2021/12/24 09:50:16;;;;;;;27.57;22.10;;;;;;;9.27;36.13;99600.66;5092101;28;20252;-74
2021/12/24 09:52:45;;;;;;;33.67;22.07;;;;;;;8.91;37.33;99599.78;5090573;28;20195;-70
2021/12/24 09:55:14;;;;;;;36.83;23.07;;;;;;;8.98;37.50;99590.06;5089672;28;20225;-72
2021/12/24 09:57:41;;;;;;;34.23;25.13;;;;;;;9.20;36.93;99589.16;5090595;28;20229;-73
2021/12/24 10:00:11;;;;;;;44.00;23.47;;;;;;;9.30;36.34;99590.50;5091717;28;20270;-72
2021/12/24 10:02:43;;;;;;;36.10;24.63;;;;;;;9.35;36.56;99589.97;5088524;28;20187;-71
2021/12/24 10:05:33;;;;;;;38.30;23.87;;;;;;;9.43;36.07;99589.81;5094046;28;20198;-71
2021/12/24 10:08:07;;;;;;;37.03;24.30;;;;;;;9.40;36.20;99590.22;5093837;28;20192;-72
2021/12/24 10:10:35;;;;;;;37.83;23.77;;;;;;;9.31;36.87;99578.09;5093681;28;20179;-72
2021/12/24 10:13:31;;;;;;;38.37;23.47;;;;;;;9.21;36.57;99573.06;5092300;28;20183;-74
2021/12/24 10:16:00;;;;;;;36.87;23.63;;;;;;;9.16;36.97;99556.09;5090868;28;20655;-70
2021/12/24 10:18:39;;;;;;;42.47;24.73;;;;;;;9.23;36.32;99549.84;5092085;28;20240;-72
2021/12/24 10:21:09;;;;;;;34.17;25.23;;;;;;;9.37;36.76;99558.78;5091697;28;20183;-73
2021/12/24 10:23:46;;;;;;;37.37;26.40;;;;;;;9.46;36.22;99557.66;5091799;28;20273;-73
2021/12/24 10:26:18;;;;;;;35.53;25.07;;;;;;;9.54;35.83;99561.03;5091627;28;20240;-70
2021/12/24 10:29:00;;;;;;;40.13;25.97;;;;;;;9.65;36.22;99557.06;5091601;28;20732;-71
2021/12/24 10:31:28;;;;;;;43.83;25.70;;;;;;;9.69;36.07;99542.41;5091942;28;20244;-72
2021/12/24 10:34:14;;;;;;;42.30;26.67;;;;;;;9.45;35.88;99550.72;5091531;28;20220;-73
2021/12/24 10:37:09;;;;;;;47.13;25.73;;;;;;;9.23;36.04;99547.19;5091273;28;20272;-72
2021/12/24 10:39:46;;;;;;;44.30;27.53;;;;;;;9.16;36.80;99534.88;5091844;28;20270;-72
2021/12/24 10:42:16;;;;;;;36.57;25.90;;;;;;;9.17;35.96;99539.16;5071558;28;20256;-73
2021/12/24 10:44:44;;;;;;;41.57;26.87;;;;;;;9.13;36.57;99529.94;5071508;28;20227;-73
2021/12/24 10:47:17;;;;;;;49.73;30.57;;;;;;;9.18;36.62;99516.97;5071763;28;20253;-73
2021/12/24 10:55:38;;;;;;;49.70;30.60;;;;;;;9.24;36.99;99506.44;5071396;28;20208;-73
2021/12/24 10:58:13;;;;;;;47.73;31.10;;;;;;;9.24;36.79;99508.28;5072250;28;20191;-71
2021/12/24 11:00:42;;;;;;;54.93;30.87;;;;;;;9.24;36.63;99505.63;5071294;28;20191;-72
2021/12/24 11:03:14;;;;;;;45.07;30.50;;;;;;;9.19;36.38;99502.72;5071226;28;20683;-73
2021/12/24 11:05:42;;;;;;;53.77;32.20;;;;;;;9.28;36.39;99505.03;5071622;28;20552;-69
2021/12/24 11:08:11;;;;;;;54.90;32.63;;;;;;;9.26;37.03;99499.13;5070688;28;20195;-70
2021/12/24 11:10:41;;;;;;;51.50;31.10;;;;;;;9.31;37.25;99495.94;5071358;28;20582;-70
2021/12/24 11:13:12;;;;;;;43.20;28.73;;;;;;;9.35;36.59;99497.19;5071401;28;20188;-70
2021/12/24 11:15:42;;;;;;;50.43;31.00;;;;;;;9.29;37.03;99488.16;5071318;28;20212;-75
2021/12/24 11:18:15;;;;;;;44.13;28.83;;;;;;;9.34;38.97;99474.31;5071536;28;20249;-71
2021/12/24 11:20:42;;;;;;;49.67;31.87;;;;;;;9.46;36.87;99478.13;5071292;28;20184;-71
2021/12/24 11:23:10;;;;;;;49.67;29.63;;;;;;;9.55;35.87;99475.16;5071003;28;20289;-72
2021/12/24 11:25:41;;;;;;;47.57;27.67;;;;;;;9.54;36.45;99478.81;5071249;28;20668;-74
2021/12/24 11:28:09;;;;;;;36.23;22.57;;;;;;;9.74;63.58;99452.47;5071403;28;20187;-70
2021/12/24 11:30:40;;;;;;;39.83;24.47;;;;;;;10.58;65.19;99452.25;5072244;28;20196;-73
2021/12/24 11:33:06;;;;;;;47.73;28.13;;;;;;;10.79;37.51;99465.44;5076476;28;20200;-70
2021/12/24 11:35:34;;;;;;;45.87;28.80;;;;;;;10.43;35.84;99467.50;5104229;27;20218;-73
2021/12/24 11:38:02;;;;;;;44.33;29.43;;;;;;;10.20;36.25;99461.63;5092223;28;20260;-73
2021/12/24 11:40:29;;;;;;;37.90;24.80;;;;;;;10.15;36.05;99456.09;5091798;28;20699;-72
2021/12/24 11:43:03;;;;;;;39.57;24.17;;;;;;;10.07;36.09;99456.22;5091681;28;20719;-74
2021/12/24 11:45:32;;;;;;;32.23;21.70;;;;;;;10.10;35.54;99445.22;5092047;28;20187;-75
2021/12/24 11:48:00;;;;;;;36.10;21.67;;;;;;;10.09;36.06;99444.41;5088847;28;20295;-75
2021/12/24 11:50:27;;;;;;;30.90;19.90;;;;;;;10.05;36.22;99434.38;5090245;28;20554;-75
2021/12/24 11:52:57;;;;;;;23.47;16.83;;;;;;;9.98;36.29;99430.81;5088156;28;20248;-75
2021/12/24 11:55:26;;;;;;;22.60;15.03;;;;;;;9.99;36.35;99419.19;5088069;28;20193;-73
2021/12/24 11:58:00;;;;;;;21.17;15.03;;;;;;;10.03;35.82;99412.50;5087482;28;20198;-73
2021/12/24 12:00:31;;;;;;;31.53;19.60;;;;;;;9.95;36.33;99396.72;5086532;28;20183;-73
2021/12/24 12:02:58;;;;;;;30.43;17.00;;;;;;;9.92;36.22;99395.28;5086730;28;20249;-73
2021/12/24 12:05:32;;;;;;;27.67;16.27;;;;;;;9.68;37.50;99384.31;5084955;28;20260;-73
2021/12/24 12:08:33;;;;;;;19.43;15.30;;;;;;;9.68;37.91;99382.44;5067841;28;20184;-73
2021/12/24 12:11:02;;;;;;;25.70;15.97;;;;;;;9.60;38.43;99389.75;5066944;28;20230;-72
2021/12/24 12:13:43;;;;;;;22.40;16.67;;;;;;;9.54;38.54;99382.53;5067792;28;20260;-73
2021/12/24 12:16:11;;;;;;;26.23;17.17;;;;;;;9.59;38.56;99382.78;5068075;28;20222;-73
2021/12/24 12:18:47;;;;;;;27.37;16.73;;;;;;;9.66;37.98;99373.03;5067696;28;20191;-73
2021/12/24 12:21:20;;;;;;;21.27;16.40;;;;;;;9.70;38.29;99379.59;5070517;28;20180;-74
2021/12/24 12:24:56;;;;;;;23.60;16.70;;;;;;;9.70;37.93;99374.31;5068597;28;20719;-73
2021/12/24 12:26:42;;;;;;;27.77;16.93;;;;;;;9.80;38.53;99369.50;5070154;28;20196;-68
2021/12/24 12:29:33;;;;;;;26.33;16.20;;;;;;;9.77;38.26;99372.53;5070521;28;20198;-70
2021/12/24 12:32:25;;;;;;;25.33;16.93;;;;;;;9.63;38.26;99366.31;5070063;28;20194;-72
2021/12/24 12:35:00;;;;;;;23.77;16.50;;;;;;;9.55;38.95;99365.63;5088323;28;20252;-69
2021/12/24 12:37:29;;;;;;;20.40;16.00;;;;;;;9.50;38.88;99354.78;5089588;28;20218;-70
2021/12/24 12:39:58;;;;;;;28.53;18.60;;;;;;;9.42;38.53;99361.03;5085925;28;20184;-70
2021/12/24 12:43:03;;;;;;;26.37;17.37;;;;;;;9.27;39.22;99368.25;5100022;28;20251;-69
2021/12/24 12:45:56;;;;;;;23.67;16.50;;;;;;;9.31;38.84;99364.19;5108791;28;20205;-70
2021/12/24 12:48:25;;;;;;;21.67;15.53;;;;;;;9.23;39.49;99366.19;5110997;28;20310;-70